createdAt,value
2019-06-26T00:00:25.570Z,541.8
2019-06-26T00:01:27.987Z,541.5
2019-06-26T00:02:30.650Z,541.4
2019-06-26T00:03:33.263Z,541.5
2019-06-26T00:04:35.673Z,541.3
2019-06-26T00:05:38.096Z,541.9
2019-06-26T00:06:40.518Z,541.4
2019-06-26T00:07:42.947Z,541.6
2019-06-26T00:08:45.088Z,541.4
2019-06-26T00:09:47.234Z,541.7
2019-06-26T00:10:49.859Z,541.5
2019-06-26T00:11:52.480Z,541.2
2019-06-26T00:12:54.936Z,541.6
2019-06-26T00:13:57.355Z,541.6
2019-06-26T00:14:59.738Z,541.4
2019-06-26T00:16:02.246Z,541
2019-06-26T00:17:04.425Z,541.5
2019-06-26T00:18:06.831Z,541.3
2019-06-26T00:19:08.977Z,541.3
2019-06-26T00:20:11.743Z,541.6
2019-06-26T00:21:14.168Z,541.3
2019-06-26T00:22:16.818Z,541.4
2019-06-26T00:23:18.956Z,541.4
2019-06-26T00:24:21.024Z,541
2019-06-26T00:25:23.457Z,541.4
2019-06-26T00:26:25.677Z,541.3
2019-06-26T00:27:28.085Z,541.4
2019-06-26T00:28:30.533Z,541.2
2019-06-26T00:29:33.348Z,541
2019-06-26T00:30:35.785Z,541.1
2019-06-26T00:31:37.923Z,541
2019-06-26T00:32:40.341Z,540.9
2019-06-26T00:33:43.402Z,541
2019-06-26T00:34:45.806Z,541
2019-06-26T00:35:48.263Z,540.7
2019-06-26T00:36:50.677Z,540.9
2019-06-26T00:37:52.832Z,541
2019-06-26T00:38:55.235Z,541.3
2019-06-26T00:39:57.865Z,541
2019-06-26T00:41:00.295Z,540.9
2019-06-26T00:42:02.505Z,541.2
2019-06-26T00:43:04.652Z,540.9
2019-06-26T00:44:06.974Z,541.4
2019-06-26T00:45:09.517Z,541.2
2019-06-26T00:46:12.148Z,541.1
2019-06-26T00:47:14.293Z,541.1
2019-06-26T00:48:16.708Z,540.8
2019-06-26T00:49:19.344Z,541
2019-06-26T00:50:21.850Z,541.2
2019-06-26T00:51:24.195Z,541.3
2019-06-26T00:52:26.809Z,541.2
2019-06-26T00:53:28.667Z,541
2019-06-26T00:54:31.019Z,540.8
2019-06-26T00:55:33.650Z,541.1
2019-06-26T00:56:35.992Z,540.9
2019-06-26T00:57:38.637Z,540.9
2019-06-26T00:58:41.065Z,541.2
2019-06-26T00:59:43.501Z,540.8
2019-06-26T01:00:45.555Z,541
2019-06-26T01:01:47.977Z,541.4
2019-06-26T01:02:50.394Z,541.4
2019-06-26T01:03:52.834Z,541.3
2019-06-26T01:04:55.200Z,541
2019-06-26T01:05:57.353Z,541.4
2019-06-26T01:06:59.549Z,541.4
2019-06-26T01:08:02.152Z,541.4
2019-06-26T01:09:04.620Z,541.2
2019-06-26T01:10:07.046Z,541.3
2019-06-26T01:11:09.460Z,541.4
2019-06-26T01:12:11.625Z,540.9
2019-06-26T01:13:14.037Z,541.7
2019-06-26T01:14:16.480Z,541.4
2019-06-26T01:15:18.638Z,541.7
2019-06-26T01:16:21.310Z,541.4
2019-06-26T01:17:23.839Z,541.5
2019-06-26T01:18:25.974Z,541.9
2019-06-26T01:19:28.402Z,541.7
2019-06-26T01:20:30.809Z,541.3
2019-06-26T01:21:33.235Z,541.1
2019-06-26T01:22:35.659Z,541.7
2019-06-26T01:23:38.083Z,541
2019-06-26T01:24:40.901Z,541.2
2019-06-26T01:25:43.073Z,541.1
2019-06-26T01:26:45.235Z,541.2
2019-06-26T01:27:47.914Z,541.1
2019-06-26T01:28:50.329Z,541.3
2019-06-26T01:29:52.947Z,541.4
2019-06-26T01:30:55.094Z,541.3
2019-06-26T01:31:57.730Z,541.3
2019-06-26T01:33:00.157Z,541.2
2019-06-26T01:34:02.372Z,541.2
2019-06-26T01:35:04.705Z,541.2
2019-06-26T01:36:07.155Z,540.9
2019-06-26T01:37:09.567Z,541.2
2019-06-26T01:38:12.031Z,540.8
2019-06-26T01:39:14.845Z,540.8
2019-06-26T01:40:17.283Z,540.8
2019-06-26T01:41:19.702Z,541.2
2019-06-26T01:42:21.929Z,541.1
2019-06-26T01:43:24.358Z,540.8
2019-06-26T01:44:26.801Z,541
2019-06-26T01:45:28.934Z,541.1
2019-06-26T01:46:31.295Z,541.3
2019-06-26T01:47:33.705Z,541.1
2019-06-26T01:48:36.128Z,540.6
2019-06-26T01:49:38.589Z,541
2019-06-26T01:50:41.259Z,540.7
2019-06-26T01:51:43.687Z,541
2019-06-26T01:52:46.128Z,540.5
2019-06-26T01:53:47.991Z,540.9
2019-06-26T01:54:50.835Z,540.4
2019-06-26T01:55:53.265Z,540.6
2019-06-26T01:56:55.737Z,540.8
2019-06-26T01:57:57.886Z,540.3
2019-06-26T01:59:00.327Z,540.2
2019-06-26T02:00:03.067Z,540.2
2019-06-26T02:01:05.554Z,540.5
2019-06-26T02:02:08.041Z,540.1
2019-06-26T02:03:10.463Z,540.3
2019-06-26T02:05:18.856Z,540.3
2019-06-26T02:06:21.285Z,540.1
2019-06-26T02:07:24.030Z,540
2019-06-26T02:08:26.474Z,539.6
2019-06-26T02:09:28.909Z,539.5
2019-06-26T02:10:31.371Z,539.6
2019-06-26T02:11:34.014Z,539.7
2019-06-26T02:12:36.943Z,539.8
2019-06-26T02:13:39.364Z,539.9
2019-06-26T02:14:41.232Z,539.6
2019-06-26T02:15:43.361Z,539.7
2019-06-26T02:16:45.986Z,539.8
2019-06-26T02:17:48.419Z,539.8
2019-06-26T02:18:50.888Z,539.9
2019-06-26T02:19:53.301Z,539.9
2019-06-26T02:20:56.051Z,539.8
2019-06-26T02:21:58.214Z,539.7
2019-06-26T02:23:00.410Z,539.5
2019-06-26T02:24:02.293Z,539.4
2019-06-26T02:25:04.783Z,539.4
2019-06-26T02:26:07.211Z,539.3
2019-06-26T02:27:09.352Z,539.2
2019-06-26T02:28:12.221Z,538.8
2019-06-26T02:29:14.363Z,539.2
2019-06-26T02:30:16.788Z,538.9
2019-06-26T02:31:19.214Z,539.2
2019-06-26T02:32:21.757Z,538.8
2019-06-26T02:33:24.212Z,538.6
2019-06-26T02:34:26.684Z,538.9
2019-06-26T02:35:29.087Z,538.9
2019-06-26T02:36:31.517Z,539.1
2019-06-26T02:37:33.915Z,539.1
2019-06-26T02:38:36.369Z,538.9
2019-06-26T02:39:38.504Z,539
2019-06-26T02:40:40.946Z,539.1
2019-06-26T02:41:43.312Z,539
2019-06-26T02:42:45.748Z,538.9
2019-06-26T02:43:48.214Z,539.1
2019-06-26T02:45:55.850Z,539
2019-06-26T02:48:03.264Z,539.2
2019-06-26T02:49:05.159Z,539.3
2019-06-26T02:50:07.042Z,538.9
2019-06-26T02:51:09.491Z,539.2
2019-06-26T02:52:11.633Z,539
2019-06-26T02:53:14.253Z,539.1
2019-06-26T02:54:16.882Z,539
2019-06-26T02:55:18.738Z,539.3
2019-06-26T02:56:20.899Z,539.3
2019-06-26T02:57:23.033Z,539.1
2019-06-26T02:58:25.477Z,539.4
2019-06-26T02:59:27.914Z,539.6
2019-06-26T03:00:30.387Z,539.6
2019-06-26T03:01:32.871Z,539.1
2019-06-26T03:02:35.307Z,539.5
2019-06-26T03:03:37.724Z,539.5
2019-06-26T03:04:39.903Z,539.6
2019-06-26T03:05:42.109Z,539.2
2019-06-26T03:06:44.463Z,539.3
2019-06-26T03:07:46.896Z,539.7
2019-06-26T03:08:49.319Z,539.4
2019-06-26T03:09:51.791Z,539.4
2019-06-26T03:10:53.967Z,539.3
2019-06-26T03:11:56.671Z,539.6
2019-06-26T03:12:59.113Z,539
2019-06-26T03:14:01.757Z,539.1
2019-06-26T03:16:09.165Z,539.3
2019-06-26T03:17:11.670Z,539.3
2019-06-26T03:18:14.088Z,539.2
2019-06-26T03:19:16.721Z,539.1
2019-06-26T03:20:19.187Z,539.3
2019-06-26T03:21:21.794Z,539.5
2019-06-26T03:22:24.239Z,539.4
2019-06-26T03:23:26.775Z,539.4
2019-06-26T03:24:28.927Z,539.4
2019-06-26T03:25:31.417Z,539.2
2019-06-26T03:26:33.871Z,539.3
2019-06-26T03:27:36.506Z,539.1
2019-06-26T03:28:38.961Z,539
2019-06-26T03:29:41.127Z,539.1
2019-06-26T03:30:43.281Z,539.2
2019-06-26T03:31:45.469Z,539
2019-06-26T03:32:47.944Z,538.6
2019-06-26T03:33:50.397Z,538.7
2019-06-26T03:34:52.843Z,538.9
2019-06-26T03:35:55.273Z,538.9
2019-06-26T03:36:57.941Z,538.6
2019-06-26T03:38:00.368Z,538.4
2019-06-26T03:39:02.869Z,538.6
2019-06-26T03:40:05.312Z,538.2
2019-06-26T03:41:07.833Z,538.4
2019-06-26T03:42:10.269Z,538.7
2019-06-26T03:43:12.688Z,538.6
2019-06-26T03:44:15.111Z,538.8
2019-06-26T03:46:22.860Z,538.5
2019-06-26T03:47:25.295Z,538.7
2019-06-26T03:48:27.447Z,538.9
2019-06-26T03:49:29.808Z,538.6
2019-06-26T03:50:31.967Z,538.5
2019-06-26T03:51:34.603Z,538.2
2019-06-26T03:52:37.038Z,538.4
2019-06-26T03:53:39.497Z,538.2
2019-06-26T03:54:41.947Z,538.1
2019-06-26T03:55:44.358Z,537.8
2019-06-26T03:56:46.779Z,537.7
2019-06-26T03:57:49.361Z,537.6
2019-06-26T03:58:51.841Z,537.6
2019-06-26T03:59:54.301Z,537.3
2019-06-26T04:00:56.802Z,537.4
2019-06-26T04:01:59.324Z,537.6
2019-06-26T04:03:01.777Z,537.5
2019-06-26T04:04:04.231Z,537.4
2019-06-26T04:05:06.501Z,537.2
2019-06-26T04:06:09.203Z,537
2019-06-26T04:07:11.375Z,537.2
2019-06-26T04:08:13.819Z,537.5
2019-06-26T04:09:15.987Z,537
2019-06-26T04:10:18.222Z,537.1
2019-06-26T04:11:20.686Z,537.2
2019-06-26T04:12:23.373Z,537
2019-06-26T04:13:25.570Z,537.2
2019-06-26T04:14:27.740Z,537
2019-06-26T04:16:35.425Z,536.9
2019-06-26T04:17:37.605Z,537
2019-06-26T04:18:39.737Z,536.8
2019-06-26T04:19:42.249Z,536.4
2019-06-26T04:20:44.683Z,536.7
2019-06-26T04:21:47.106Z,537
2019-06-26T04:22:49.765Z,537
2019-06-26T04:23:52.181Z,537.1
2019-06-26T04:24:54.054Z,537.2
2019-06-26T04:25:56.480Z,537.3
2019-06-26T04:26:58.901Z,537.3
2019-06-26T04:28:01.351Z,537.1
2019-06-26T04:29:03.784Z,537.2
2019-06-26T04:30:06.250Z,537.1
2019-06-26T04:31:08.701Z,537.2
2019-06-26T04:32:11.055Z,537.1
2019-06-26T04:33:13.479Z,537
2019-06-26T04:34:15.659Z,537
2019-06-26T04:35:18.082Z,536.9
2019-06-26T04:36:20.507Z,537.1
2019-06-26T04:37:22.929Z,537
2019-06-26T04:38:25.348Z,536.7
2019-06-26T04:39:27.787Z,537.1
2019-06-26T04:40:30.273Z,536.7
2019-06-26T04:41:32.494Z,536.9
2019-06-26T04:42:34.946Z,536.4
2019-06-26T04:43:37.380Z,536.1
2019-06-26T04:44:40.245Z,536.1
2019-06-26T04:46:47.682Z,536.4
2019-06-26T04:47:50.117Z,536
2019-06-26T04:48:53.082Z,536.2
2019-06-26T04:49:55.246Z,536.2
2019-06-26T04:50:58.103Z,536
2019-06-26T04:52:00.525Z,536.1
2019-06-26T04:53:02.679Z,536
2019-06-26T04:54:05.138Z,536.3
2019-06-26T04:55:07.022Z,536.1
2019-06-26T04:56:09.465Z,536.2
2019-06-26T04:57:11.910Z,535.7
2019-06-26T04:58:14.112Z,536
2019-06-26T04:59:16.253Z,536.3
2019-06-26T05:01:25.205Z,536.3
2019-06-26T05:02:27.636Z,536
2019-06-26T05:03:30.392Z,536.2
2019-06-26T05:04:33.037Z,535.9
2019-06-26T05:06:40.485Z,535.6
2019-06-26T05:07:42.918Z,535.7
2019-06-26T05:08:45.063Z,535.7
2019-06-26T05:09:47.481Z,534.9
2019-06-26T05:10:50.007Z,535
2019-06-26T05:11:52.655Z,534.9
2019-06-26T05:12:55.105Z,535.5
2019-06-26T05:13:57.605Z,535.5
2019-06-26T05:15:00.015Z,534.9
2019-06-26T05:17:07.430Z,535.3
2019-06-26T05:18:10.276Z,535.2
2019-06-26T05:19:12.834Z,535.4
2019-06-26T05:20:15.268Z,535
2019-06-26T05:21:17.755Z,535.1
2019-06-26T05:22:20.217Z,535.1
2019-06-26T05:23:22.654Z,535.4
2019-06-26T05:24:25.079Z,535.5
2019-06-26T05:25:27.752Z,535
2019-06-26T05:26:30.200Z,535.2
2019-06-26T05:27:32.823Z,535.2
2019-06-26T05:28:35.031Z,535.5
2019-06-26T05:29:37.219Z,534.8
2019-06-26T05:30:39.675Z,534.9
2019-06-26T05:31:42.756Z,534.6
2019-06-26T05:32:45.253Z,534.7
2019-06-26T05:33:47.839Z,534.7
2019-06-26T05:34:50.514Z,534.6
2019-06-26T05:35:52.695Z,534.6
2019-06-26T05:36:55.124Z,534.6
2019-06-26T05:37:57.301Z,534
2019-06-26T05:38:59.518Z,534.4
2019-06-26T05:40:01.940Z,534.5
2019-06-26T05:41:04.659Z,534.2
2019-06-26T05:42:08.505Z,534.3
2019-06-26T05:43:10.677Z,533.5
2019-06-26T05:44:13.178Z,534.1
2019-06-26T05:45:15.606Z,534.2
2019-06-26T05:47:24.194Z,534
2019-06-26T05:48:26.603Z,533.4
2019-06-26T05:49:29.241Z,533.3
2019-06-26T05:50:31.373Z,533.5
2019-06-26T05:51:33.814Z,533.8
2019-06-26T05:52:36.546Z,533.8
2019-06-26T05:53:38.953Z,533.3
2019-06-26T05:54:40.545Z,533.2
2019-06-26T05:55:43.160Z,533.6
2019-06-26T05:56:47.465Z,533.3
2019-06-26T05:57:50.893Z,533
2019-06-26T05:58:53.337Z,533.2
2019-06-26T05:59:55.978Z,532.9
2019-06-26T06:00:58.409Z,533.1
2019-06-26T06:02:00.906Z,532.8
2019-06-26T06:03:03.414Z,532.6
2019-06-26T06:04:05.567Z,532.5
2019-06-26T06:05:07.977Z,532.3
2019-06-26T06:06:10.120Z,532.5
2019-06-26T06:07:12.255Z,532.1
2019-06-26T06:08:14.680Z,532.3
2019-06-26T06:09:17.102Z,532.2
2019-06-26T06:10:19.257Z,532.3
2019-06-26T06:11:21.409Z,531.9
2019-06-26T06:12:23.890Z,532.1
2019-06-26T06:13:26.052Z,531.8
2019-06-26T06:14:28.191Z,531.7
2019-06-26T06:15:30.144Z,531.6
2019-06-26T06:17:37.889Z,531.7
2019-06-26T06:18:40.326Z,531.8
2019-06-26T06:19:42.685Z,531.5
2019-06-26T06:20:45.110Z,532.1
2019-06-26T06:21:47.537Z,532
2019-06-26T06:22:49.717Z,531.8
2019-06-26T06:23:52.371Z,531.6
2019-06-26T06:24:54.818Z,531.8
2019-06-26T06:25:57.248Z,531.8
2019-06-26T06:26:59.866Z,531.5
2019-06-26T06:28:02.007Z,531.3
2019-06-26T06:29:04.390Z,531.3
2019-06-26T06:30:06.557Z,531.4
2019-06-26T06:31:08.805Z,531.2
2019-06-26T06:32:10.989Z,530.9
2019-06-26T06:33:13.125Z,530.8
2019-06-26T06:34:15.548Z,530.5
2019-06-26T06:35:17.974Z,530.5
2019-06-26T06:36:20.403Z,530.6
2019-06-26T06:37:23.039Z,530.4
2019-06-26T06:38:25.549Z,530.4
2019-06-26T06:39:27.956Z,530.7
2019-06-26T06:40:30.587Z,530.6
2019-06-26T06:41:32.994Z,530.7
2019-06-26T06:42:35.671Z,530.7
2019-06-26T06:43:37.846Z,530.6
2019-06-26T06:44:39.999Z,530.5
2019-06-26T06:45:42.421Z,530.2
2019-06-26T06:46:44.550Z,530.4
2019-06-26T06:47:46.405Z,530
2019-06-26T06:48:48.831Z,530.3
2019-06-26T06:49:51.541Z,530
2019-06-26T06:50:53.999Z,530.2
2019-06-26T06:51:56.474Z,530.2
2019-06-26T06:52:59.115Z,530
2019-06-26T06:54:01.247Z,530
2019-06-26T06:55:03.759Z,530.1
2019-06-26T06:56:06.187Z,529.9
2019-06-26T06:57:08.624Z,529.9
2019-06-26T06:58:11.023Z,529.9
2019-06-26T06:59:13.197Z,529.8
2019-06-26T07:00:15.637Z,529.7
2019-06-26T07:01:17.788Z,529.8
2019-06-26T07:02:19.942Z,529.5
2019-06-26T07:03:22.349Z,529.5
2019-06-26T07:04:24.786Z,529.2
2019-06-26T07:05:27.200Z,529.7
2019-06-26T07:06:29.619Z,529.3
2019-06-26T07:07:32.045Z,529.5
2019-06-26T07:08:34.523Z,529.8
2019-06-26T07:09:37.171Z,529.9
2019-06-26T07:10:39.592Z,529.7
2019-06-26T07:11:42.033Z,530
2019-06-26T07:12:44.684Z,529.7
2019-06-26T07:13:47.122Z,529.5
2019-06-26T07:14:49.598Z,529.4
2019-06-26T07:15:52.040Z,529.6
2019-06-26T07:16:54.763Z,529.7
2019-06-26T07:17:57.214Z,529.6
2019-06-26T07:18:59.742Z,529.3
2019-06-26T07:20:01.991Z,529.5
2019-06-26T07:21:04.453Z,529.4
2019-06-26T07:23:11.875Z,529.3
2019-06-26T07:24:14.508Z,529.3
2019-06-26T07:25:16.961Z,529.1
2019-06-26T07:26:19.393Z,529.2
2019-06-26T07:27:22.031Z,529.3
2019-06-26T07:28:24.753Z,528.9
2019-06-26T07:29:26.897Z,528.7
2019-06-26T07:30:29.317Z,529
2019-06-26T07:31:31.777Z,528.8
2019-06-26T07:32:34.252Z,529.1
2019-06-26T07:33:36.746Z,529
2019-06-26T07:34:39.157Z,528.6
2019-06-26T07:35:41.592Z,528.8
2019-06-26T07:36:43.733Z,528.5
2019-06-26T07:37:46.158Z,528.7
2019-06-26T07:38:48.790Z,528.5
2019-06-26T07:39:51.454Z,528.6
2019-06-26T07:40:53.914Z,528.3
2019-06-26T07:41:56.341Z,528.7
2019-06-26T07:42:58.869Z,529
2019-06-26T07:44:01.305Z,528.7
2019-06-26T07:45:03.779Z,528.3
2019-06-26T07:46:06.195Z,529
2019-06-26T07:48:13.453Z,528.5
2019-06-26T07:49:15.897Z,528.5
2019-06-26T07:50:18.317Z,528.6
2019-06-26T07:51:20.944Z,528.6
2019-06-26T07:52:23.121Z,528.7
2019-06-26T07:53:25.546Z,528.4
2019-06-26T07:54:28.019Z,528.6
2019-06-26T07:55:30.465Z,528.7
2019-06-26T07:56:32.892Z,528.6
2019-06-26T07:57:35.193Z,528.8
2019-06-26T07:58:37.342Z,528.4
2019-06-26T07:59:40.128Z,528.3
2019-06-26T08:00:42.424Z,528.4
2019-06-26T08:01:44.899Z,528.4
2019-06-26T08:02:47.110Z,528.4
2019-06-26T08:03:49.542Z,528.7
2019-06-26T08:04:51.991Z,528.2
2019-06-26T08:05:54.441Z,528.3
2019-06-26T08:06:56.899Z,528.2
2019-06-26T08:07:59.329Z,528.1
2019-06-26T08:09:01.770Z,528.2
2019-06-26T08:10:04.246Z,528.2
2019-06-26T08:11:08.564Z,528.2
2019-06-26T08:12:11.200Z,528.2
2019-06-26T08:13:13.695Z,528.2
2019-06-26T08:14:15.884Z,527.8
2019-06-26T08:15:18.876Z,527.9
2019-06-26T08:16:21.328Z,527.7
2019-06-26T08:17:23.848Z,527.7
2019-06-26T08:18:26.322Z,527.4
2019-06-26T08:19:28.753Z,527.8
2019-06-26T08:20:31.181Z,527.7
2019-06-26T08:21:33.606Z,527.5
2019-06-26T08:22:36.175Z,527.4
2019-06-26T08:23:38.815Z,527.4
2019-06-26T08:24:41.236Z,527.2
2019-06-26T08:25:43.657Z,527.1
2019-06-26T08:26:46.124Z,527
2019-06-26T08:27:48.550Z,527.2
2019-06-26T08:28:50.730Z,527.5
2019-06-26T08:29:53.189Z,527.6
2019-06-26T08:30:55.612Z,527.5
2019-06-26T08:31:57.789Z,527.3
2019-06-26T08:33:00.241Z,527.3
2019-06-26T08:34:02.664Z,527.2
2019-06-26T08:35:04.827Z,527.1
2019-06-26T08:36:07.279Z,527.5
2019-06-26T08:37:09.714Z,527.6
2019-06-26T08:39:17.439Z,527.5
2019-06-26T08:40:20.140Z,527.2
2019-06-26T08:41:22.569Z,527.8
2019-06-26T08:42:25.242Z,527.6
2019-06-26T08:43:30.939Z,527.6
2019-06-26T08:44:33.833Z,527.8
2019-06-26T08:45:36.275Z,528
2019-06-26T08:46:38.719Z,527.6
2019-06-26T08:47:40.860Z,527.7
2019-06-26T08:48:43.324Z,527.7
2019-06-26T08:49:46.304Z,527.9
2019-06-26T08:50:48.469Z,527.9
2019-06-26T08:51:50.906Z,527.9
2019-06-26T08:52:52.901Z,527.6
2019-06-26T08:53:55.354Z,528
2019-06-26T08:54:57.790Z,527.6
2019-06-26T08:55:59.971Z,527.9
2019-06-26T08:57:02.427Z,527.2
2019-06-26T08:58:04.883Z,527.3
2019-06-26T08:59:07.320Z,527.6
2019-06-26T09:00:09.471Z,527.1
2019-06-26T09:01:12.126Z,527.6
2019-06-26T09:02:14.547Z,527.5
2019-06-26T09:03:16.688Z,527.5
2019-06-26T09:04:19.369Z,527.4
2019-06-26T09:05:21.823Z,527.6
2019-06-26T09:06:23.996Z,527.7
2019-06-26T09:07:26.670Z,527.6
2019-06-26T09:08:29.596Z,527.5
2019-06-26T09:09:32.134Z,527.6
2019-06-26T09:10:34.882Z,527.6
2019-06-26T09:11:37.445Z,527.2
2019-06-26T09:12:39.708Z,527.4
2019-06-26T09:13:42.478Z,527.4
2019-06-26T09:14:44.872Z,527.6
2019-06-26T09:16:52.305Z,527.4
2019-06-26T09:17:54.730Z,527.3
2019-06-26T09:18:57.105Z,527.7
2019-06-26T09:19:59.720Z,527.6
2019-06-26T09:21:01.943Z,527.3
2019-06-26T09:22:04.356Z,527.5
2019-06-26T09:23:06.768Z,527.5
2019-06-26T09:24:09.414Z,527.5
2019-06-26T09:26:16.851Z,527.6
2019-06-26T09:27:19.695Z,527.4
2019-06-26T09:28:22.154Z,527.4
2019-06-26T09:29:25.994Z,527.5
2019-06-26T09:30:28.645Z,527.7
2019-06-26T09:31:31.063Z,527.4
2019-06-26T09:32:33.499Z,527.6
2019-06-26T09:33:35.942Z,527.4
2019-06-26T09:34:38.358Z,527.5
2019-06-26T09:35:40.784Z,527.4
2019-06-26T09:36:43.227Z,527.2
2019-06-26T09:37:45.643Z,527.3
2019-06-26T09:38:47.535Z,526.8
2019-06-26T09:39:49.990Z,527.2
2019-06-26T09:40:52.598Z,527.1
2019-06-26T09:41:55.055Z,526.9
2019-06-26T09:42:57.474Z,527.1
2019-06-26T09:43:59.909Z,527.2
2019-06-26T09:45:02.623Z,527.1
2019-06-26T09:46:05.384Z,527
2019-06-26T09:47:07.850Z,526.7
2019-06-26T09:48:10.270Z,526.8
2019-06-26T09:49:12.724Z,527
2019-06-26T09:50:15.151Z,526.9
2019-06-26T09:51:17.571Z,526.6
2019-06-26T09:52:20.083Z,527
2019-06-26T09:53:22.369Z,526.7
2019-06-26T09:54:24.784Z,526.9
2019-06-26T09:55:27.494Z,526.8
2019-06-26T09:56:29.646Z,526.8
2019-06-26T09:57:32.079Z,526.6
2019-06-26T09:58:34.231Z,526.7
2019-06-26T09:59:37.082Z,526.8
2019-06-26T10:00:39.234Z,526.7
2019-06-26T10:01:41.739Z,527.1
2019-06-26T10:02:44.171Z,526.9
2019-06-26T10:03:47.372Z,526.7
2019-06-26T10:04:49.808Z,526.7
2019-06-26T10:05:51.948Z,526.8
2019-06-26T10:06:54.442Z,526.9
2019-06-26T10:07:56.886Z,526.8
2019-06-26T10:08:59.341Z,527
2019-06-26T10:10:01.486Z,527
2019-06-26T10:11:03.916Z,527.1
2019-06-26T10:12:06.071Z,527.2
2019-06-26T10:13:08.521Z,527.4
2019-06-26T10:14:10.974Z,527.5
2019-06-26T10:15:13.396Z,527.6
2019-06-26T10:16:15.570Z,527.5
2019-06-26T10:17:17.998Z,527.6
2019-06-26T10:18:20.421Z,527.6
2019-06-26T10:19:22.853Z,527.9
2019-06-26T10:20:25.275Z,527.5
2019-06-26T10:21:27.772Z,527.6
2019-06-26T10:22:30.250Z,527.6
2019-06-26T10:23:32.134Z,527.6
2019-06-26T10:24:34.680Z,527.6
2019-06-26T10:25:37.139Z,528
2019-06-26T10:26:39.608Z,527.9
2019-06-26T10:27:41.798Z,527.7
2019-06-26T10:28:44.212Z,527.7
2019-06-26T10:29:46.359Z,527.8
2019-06-26T10:30:48.861Z,527.8
2019-06-26T10:31:51.302Z,528.1
2019-06-26T10:32:53.739Z,527.9
2019-06-26T10:33:56.166Z,527.6
2019-06-26T10:34:58.600Z,527.6
2019-06-26T10:36:00.782Z,527.4
2019-06-26T10:37:03.285Z,527.5
2019-06-26T10:38:06.093Z,527.6
2019-06-26T10:39:08.523Z,527.7
2019-06-26T10:40:10.960Z,527.4
2019-06-26T10:41:13.459Z,527.4
2019-06-26T10:42:15.906Z,527.7
2019-06-26T10:43:18.374Z,527.1
2019-06-26T10:44:20.840Z,527.4
2019-06-26T10:45:23.271Z,527.7
2019-06-26T10:46:25.722Z,527.7
2019-06-26T10:47:28.148Z,527.4
2019-06-26T10:48:30.580Z,527.5
2019-06-26T10:49:33.039Z,527.8
2019-06-26T10:51:41.370Z,527.8
2019-06-26T10:52:43.964Z,527.8
2019-06-26T10:53:46.412Z,528.1
2019-06-26T10:54:48.861Z,527.8
2019-06-26T10:55:51.295Z,527.9
2019-06-26T10:56:53.733Z,528
2019-06-26T10:57:56.222Z,528.2
2019-06-26T10:58:58.649Z,528.3
2019-06-26T11:00:00.543Z,528
2019-06-26T11:01:03.120Z,528.2
2019-06-26T11:02:05.585Z,528.6
2019-06-26T11:03:08.021Z,528.7
2019-06-26T11:04:10.473Z,528.7
2019-06-26T11:05:13.420Z,528.6
2019-06-26T11:06:16.080Z,528.7
2019-06-26T11:07:18.529Z,528
2019-06-26T11:08:20.942Z,528.6
2019-06-26T11:09:23.392Z,528.7
2019-06-26T11:10:25.533Z,528.3
2019-06-26T11:11:27.683Z,528.3
2019-06-26T11:12:30.104Z,528.5
2019-06-26T11:13:32.715Z,528.4
2019-06-26T11:14:34.879Z,528.6
2019-06-26T11:15:37.331Z,528.4
2019-06-26T11:16:39.988Z,528.5
2019-06-26T11:17:42.428Z,528.4
2019-06-26T11:18:44.879Z,528.6
2019-06-26T11:19:47.316Z,528.3
2019-06-26T11:20:49.532Z,528.4
2019-06-26T11:21:51.953Z,528.7
2019-06-26T11:22:54.328Z,528.7
2019-06-26T11:23:56.998Z,528.7
2019-06-26T11:24:59.453Z,529.2
2019-06-26T11:26:02.615Z,528.9
2019-06-26T11:27:04.941Z,529
2019-06-26T11:28:07.570Z,529
2019-06-26T11:29:10.021Z,529.4
2019-06-26T11:30:12.452Z,529.2
2019-06-26T11:31:15.469Z,529.2
2019-06-26T11:32:17.875Z,529.3
2019-06-26T11:33:19.778Z,529.7
2019-06-26T11:34:22.238Z,529.5
2019-06-26T11:35:24.690Z,529.5
2019-06-26T11:36:27.197Z,530
2019-06-26T11:37:29.622Z,529.5
2019-06-26T11:38:31.781Z,529.8
2019-06-26T11:39:33.953Z,529.5
2019-06-26T11:40:36.363Z,529.4
2019-06-26T11:41:39.026Z,529.7
2019-06-26T11:42:41.653Z,529.6
2019-06-26T11:43:44.108Z,529.8
2019-06-26T11:44:46.552Z,529.7
2019-06-26T11:45:48.562Z,530
2019-06-26T11:46:51.071Z,529.6
2019-06-26T11:47:53.570Z,530
2019-06-26T11:48:56.161Z,529.6
2019-06-26T11:51:03.773Z,529.9
2019-06-26T11:52:06.174Z,530.2
2019-06-26T11:53:08.723Z,529.8
2019-06-26T11:54:11.062Z,530
2019-06-26T11:55:15.274Z,530.3
2019-06-26T11:56:17.832Z,529.9
2019-06-26T11:57:20.251Z,530
2019-06-26T11:58:22.870Z,530.4
2019-06-26T11:59:25.311Z,530
2019-06-26T12:00:27.837Z,530.1
2019-06-26T12:01:30.283Z,530.2
2019-06-26T12:02:33.533Z,530.3
2019-06-26T12:03:35.859Z,530
2019-06-26T12:04:38.039Z,530.4
2019-06-26T12:05:40.566Z,530
2019-06-26T12:07:48.956Z,530.1
2019-06-26T12:08:51.185Z,530
2019-06-26T12:09:54.147Z,530.6
2019-06-26T12:10:56.672Z,530.4
2019-06-26T12:11:59.025Z,530.6
2019-06-26T12:14:07.524Z,530.8
2019-06-26T12:15:11.060Z,530.8
2019-06-26T12:16:13.668Z,530.6
2019-06-26T12:17:16.127Z,530.7
2019-06-26T12:18:19.159Z,531.1
2019-06-26T12:20:26.968Z,530.7
2019-06-26T12:21:29.424Z,531
2019-06-26T12:22:31.853Z,531.6
2019-06-26T12:23:34.026Z,531.3
2019-06-26T12:24:36.860Z,531.2
2019-06-26T12:25:39.506Z,531.2
2019-06-26T12:26:42.220Z,531.4
2019-06-26T12:27:45.028Z,531.7
2019-06-26T12:28:47.734Z,531.7
2019-06-26T12:29:50.211Z,531.8
2019-06-26T12:30:52.658Z,531.5
2019-06-26T12:31:55.089Z,531.7
2019-06-26T12:34:02.440Z,531.4
2019-06-26T12:35:04.961Z,531.9
2019-06-26T12:36:07.595Z,531.8
2019-06-26T12:37:09.933Z,532
2019-06-26T12:38:12.965Z,531.9
2019-06-26T12:39:15.461Z,532.1
2019-06-26T12:40:17.878Z,532.3
2019-06-26T12:41:20.107Z,532.7
2019-06-26T12:42:22.833Z,532.6
2019-06-26T12:43:25.259Z,532.8
2019-06-26T12:44:27.687Z,533.1
2019-06-26T12:45:29.861Z,533
2019-06-26T12:46:32.301Z,533.2
2019-06-26T12:47:34.733Z,533.3
2019-06-26T12:48:37.203Z,533.3
2019-06-26T12:49:39.467Z,533.2
2019-06-26T12:50:42.315Z,533.5
2019-06-26T12:51:44.811Z,533.3
2019-06-26T12:52:47.189Z,533.4
2019-06-26T12:53:49.616Z,533.1
2019-06-26T12:54:52.112Z,533.7
2019-06-26T12:55:54.530Z,533.6
2019-06-26T12:56:56.408Z,533.7
2019-06-26T12:59:03.873Z,534.2
2019-06-26T13:00:06.535Z,534.3
2019-06-26T13:01:08.997Z,534.4
2019-06-26T13:02:11.402Z,533.9
2019-06-26T13:03:13.818Z,534.1
2019-06-26T13:04:15.687Z,534.2
2019-06-26T13:05:18.138Z,534.5
2019-06-26T13:06:20.558Z,534.4
2019-06-26T13:07:22.713Z,534.5
2019-06-26T13:08:25.183Z,534.5
2019-06-26T13:09:27.601Z,534.7
2019-06-26T13:10:30.068Z,534.1
2019-06-26T13:11:32.623Z,534.2
2019-06-26T13:12:35.069Z,534.6
2019-06-26T13:13:37.764Z,534.9
2019-06-26T13:14:40.193Z,534.7
2019-06-26T13:15:42.409Z,534.8
2019-06-26T13:16:44.947Z,535.1
2019-06-26T13:17:47.179Z,534.9
2019-06-26T13:18:49.658Z,534.6
2019-06-26T13:19:52.095Z,534.9
2019-06-26T13:20:55.868Z,534.6
2019-06-26T13:21:58.096Z,535.2
2019-06-26T13:23:00.595Z,535.1
2019-06-26T13:24:03.071Z,534.8
2019-06-26T13:25:05.532Z,535.2
2019-06-26T13:26:08.006Z,535.2
2019-06-26T13:27:10.473Z,534.9
2019-06-26T13:28:13.132Z,535.2
2019-06-26T13:29:15.559Z,535
2019-06-26T13:30:18.111Z,535.2
2019-06-26T13:31:20.368Z,535.2
2019-06-26T13:32:23.012Z,534.9
2019-06-26T13:33:25.597Z,535.1
2019-06-26T13:34:27.838Z,534.8
2019-06-26T13:35:30.464Z,535.3
2019-06-26T13:36:32.919Z,534.9
2019-06-26T13:37:35.375Z,535.2
2019-06-26T13:38:38.009Z,535.2
2019-06-26T13:39:40.429Z,535.4
2019-06-26T13:40:43.286Z,534.9
2019-06-26T13:41:45.751Z,535
2019-06-26T13:42:48.175Z,534.9
2019-06-26T13:43:50.775Z,535
2019-06-26T13:44:53.211Z,534.8
2019-06-26T13:47:01.662Z,535.2
2019-06-26T13:48:04.540Z,535.4
2019-06-26T13:49:06.985Z,535.3
2019-06-26T13:50:09.534Z,535.2
2019-06-26T13:51:12.283Z,535.4
2019-06-26T13:52:14.824Z,535.4
2019-06-26T13:53:17.273Z,535.1
2019-06-26T13:54:19.872Z,535.2
2019-06-26T13:55:22.304Z,535.3
2019-06-26T13:56:24.715Z,534.6
2019-06-26T13:57:27.203Z,534.9